Time,TemperatureF,DewpointF,PressureIn,WindDirection,WindDirectionDegrees,WindSpeedMPH,WindSpeedGustMPH,Humidity,HourlyPrecipIn,Conditions,Clouds,dailyrainin,SoftwareType,DateUTC
2013-02-09 00:04:00,53.4,49.3,30.13,North,0,0.0,0.0,86,0.00,,,0.00,WUHU216HW,2013-02-09 06:04:00,
2013-02-09 00:14:00,53.7,49.6,30.13,WNW,297,1.7,2.9,86,0.00,,,0.00,WUHU216HW,2013-02-09 06:14:00,
2013-02-09 00:24:00,53.9,49.8,30.13,NW,315,2.9,2.9,86,0.00,,,0.00,WUHU216HW,2013-02-09 06:24:00,
2013-02-09 00:34:00,54.3,50.1,30.13,NNE,31,1.8,2.0,86,0.00,,,0.00,WUHU216HW,2013-02-09 06:34:00,
2013-02-09 00:44:00,54.5,50.0,30.13,NE,46,2.7,3.5,85,0.00,,,0.00,WUHU216HW,2013-02-09 06:44:00,
2013-02-09 00:54:00,54.6,50.2,30.13,WNW,293,1.7,3.1,85,0.00,,,0.00,WUHU216HW,2013-02-09 06:54:00,
2013-02-09 01:05:00,54.6,50.2,30.13,NNE,23,2.3,2.6,85,0.00,,,0.00,WUHU216HW,2013-02-09 07:05:00,
2013-02-09 01:15:00,54.8,50.3,30.13,ENE,68,1.6,1.6,85,0.00,,,0.00,WUHU216HW,2013-02-09 07:15:00,
2013-02-09 01:25:00,54.6,50.2,30.13,NNE,27,1.3,1.8,85,0.00,,,0.00,WUHU216HW,2013-02-09 07:25:00,
2013-02-09 01:35:00,54.6,50.2,30.13,NNW,334,1.6,2.4,85,0.00,,,0.00,WUHU216HW,2013-02-09 07:35:00,
2013-02-09 01:45:00,54.5,49.7,30.14,NNW,334,1.3,2.4,84,0.00,,,0.00,WUHU216HW,2013-02-09 07:45:00,
2013-02-09 01:56:00,54.3,49.5,30.14,NNW,334,1.3,1.6,84,0.00,,,0.00,WUHU216HW,2013-02-09 07:56:00,
2013-02-09 02:06:00,54.3,49.5,30.14,North,349,2.2,3.5,84,0.00,,,0.00,WUHU216HW,2013-02-09 08:06:00,
2013-02-09 02:16:00,54.1,49.3,30.14,NNW,348,1.1,1.3,84,0.00,,,0.00,WUHU216HW,2013-02-09 08:16:00,
2013-02-09 02:26:00,53.9,49.2,30.15,NNE,28,3.1,4.6,84,0.00,,,0.00,WUHU216HW,2013-02-09 08:26:00,
2013-02-09 02:36:00,53.7,48.7,30.15,NNW,337,1.3,2.4,83,0.00,,,0.00,WUHU216HW,2013-02-09 08:36:00,
2013-02-09 02:46:00,53.4,48.3,30.16,NW,309,2.3,2.9,83,0.00,,,0.00,WUHU216HW,2013-02-09 08:46:00,
2013-02-09 02:56:00,53.2,48.5,30.16,North,0,0.0,0.0,84,0.00,,,0.00,WUHU216HW,2013-02-09 08:56:00,
2013-02-09 03:06:00,52.8,47.8,30.17,North,354,1.3,1.6,83,0.00,,,0.00,WUHU216HW,2013-02-09 09:06:00,
2013-02-09 03:16:00,52.3,47.3,30.16,NW,324,1.7,2.6,83,0.00,,,0.00,WUHU216HW,2013-02-09 09:16:00,
2013-02-09 03:26:00,51.8,46.7,30.16,NNE,27,2.3,3.5,83,0.00,,,0.00,WUHU216HW,2013-02-09 09:26:00,
2013-02-09 03:36:00,51.4,46.4,30.18,North,353,2.4,3.5,83,0.00,,,0.00,WUHU216HW,2013-02-09 09:36:00,
2013-02-09 03:46:00,51.0,46.0,30.18,NNE,23,1.3,1.3,83,0.00,,,0.00,WUHU216HW,2013-02-09 09:46:00,
2013-02-09 03:57:00,50.7,46.0,30.18,NNW,339,2.4,4.2,84,0.00,,,0.00,WUHU216HW,2013-02-09 09:57:00,
2013-02-09 04:07:00,50.5,45.8,30.17,NNE,25,2.2,4.0,84,0.00,,,0.00,WUHU216HW,2013-02-09 10:07:00,
2013-02-09 04:17:00,50.1,45.4,30.18,North,349,1.6,1.8,84,0.00,,,0.00,WUHU216HW,2013-02-09 10:17:00,
2013-02-09 04:27:00,49.6,45.1,30.18,NNE,23,2.4,2.9,84,0.00,,,0.00,WUHU216HW,2013-02-09 10:27:00,
2013-02-09 04:37:00,49.1,44.4,30.17,NNW,344,1.8,2.0,84,0.00,,,0.00,WUHU216HW,2013-02-09 10:37:00,
2013-02-09 04:47:00,48.3,44.0,30.17,North,0,0.7,0.7,85,0.00,,,0.00,WUHU216HW,2013-02-09 10:47:00,
2013-02-09 04:57:00,47.6,43.5,30.17,NNE,13,1.4,2.0,85,0.00,,,0.00,WUHU216HW,2013-02-09 10:57:00,
2013-02-09 05:07:00,47.1,43.1,30.17,North,354,1.9,2.4,86,0.00,,,0.00,WUHU216HW,2013-02-09 11:07:00,
2013-02-09 05:19:00,46.5,42.6,30.17,NNE,23,1.8,1.8,86,0.00,,,0.00,WUHU216HW,2013-02-09 11:19:00,
2013-02-09 05:29:00,46.2,42.2,30.17,North,0,0.0,0.0,86,0.00,,,0.00,WUHU216HW,2013-02-09 11:29:00,
2013-02-09 05:39:00,45.6,42.0,30.18,North,0,0.0,0.0,87,0.00,,,0.00,WUHU216HW,2013-02-09 11:39:00,
2013-02-09 05:50:00,45.3,41.7,30.18,North,0,0.0,0.0,87,0.00,,,0.00,WUHU216HW,2013-02-09 11:50:00,
2013-02-09 06:00:00,44.9,41.3,30.18,North,0,0.0,0.0,87,0.00,,,0.00,WUHU216HW,2013-02-09 12:00:00,
2013-02-09 06:11:00,44.6,41.2,30.18,NNW,333,2.2,2.4,88,0.00,,,0.00,WUHU216HW,2013-02-09 12:11:00,
2013-02-09 06:21:00,44.2,40.6,30.20,NNE,23,1.6,1.6,87,0.00,,,0.00,WUHU216HW,2013-02-09 12:21:00,
2013-02-09 06:31:00,43.8,40.2,30.20,North,0,0.0,0.0,87,0.00,,,0.00,WUHU216HW,2013-02-09 12:31:00,
2013-02-09 06:41:00,43.7,40.3,30.20,North,0,0.0,0.0,88,0.00,,,0.00,WUHU216HW,2013-02-09 12:41:00,
2013-02-09 06:51:00,43.3,40.0,30.20,North,0,0.0,0.0,88,0.00,,,0.00,WUHU216HW,2013-02-09 12:51:00,
2013-02-09 07:01:00,43.3,40.0,30.20,North,0,0.0,0.0,88,0.00,,,0.00,WUHU216HW,2013-02-09 13:01:00,
2013-02-09 07:11:00,43.1,39.8,30.20,NNE,23,2.4,2.4,88,0.00,,,0.00,WUHU216HW,2013-02-09 13:11:00,
2013-02-09 07:21:00,43.1,39.8,30.20,East,90,0.7,0.7,88,0.00,,,0.00,WUHU216HW,2013-02-09 13:21:00,
2013-02-09 07:32:00,43.1,39.8,30.21,NNW,348,2.1,2.6,88,0.00,,,0.00,WUHU216HW,2013-02-09 13:32:00,
2013-02-09 07:42:00,43.3,39.7,30.22,NNE,23,1.7,2.0,87,0.00,,,0.00,WUHU216HW,2013-02-09 13:42:00,
2013-02-09 07:52:00,43.5,39.9,30.22,North,4,1.9,2.9,87,0.00,,,0.00,WUHU216HW,2013-02-09 13:52:00,
2013-02-09 08:02:00,44.2,40.5,30.23,SSE,157,2.6,2.9,87,0.00,,,0.00,WUHU216HW,2013-02-09 14:02:00,
2013-02-09 08:12:00,44.6,40.6,30.22,ENE,67,2.7,4.0,86,0.00,,,0.00,WUHU216HW,2013-02-09 14:12:00,
2013-02-09 08:23:00,44.9,40.6,30.23,ESE,115,1.6,2.4,85,0.00,,,0.00,WUHU216HW,2013-02-09 14:23:00,
2013-02-09 08:33:00,45.5,41.1,30.22,NNW,347,2.5,3.7,85,0.00,,,0.00,WUHU216HW,2013-02-09 14:33:00,
2013-02-09 08:43:00,46.2,41.8,30.23,North,0,4.8,4.8,85,0.00,,,0.00,WUHU216HW,2013-02-09 14:43:00,
2013-02-09 08:53:00,46.9,41.8,30.22,North,354,2.8,3.7,82,0.00,,,0.00,WUHU216HW,2013-02-09 14:53:00,
2013-02-09 09:03:00,47.4,42.0,30.23,East,84,3.0,4.8,81,0.00,,,0.00,WUHU216HW,2013-02-09 15:03:00,
2013-02-09 09:13:00,48.2,42.4,30.23,East,79,2.4,4.6,80,0.00,,,0.00,WUHU216HW,2013-02-09 15:13:00,
2013-02-09 09:23:00,49.1,42.6,30.23,ESE,105,3.6,6.1,78,0.00,,,0.00,WUHU216HW,2013-02-09 15:23:00,
2013-02-09 09:33:00,49.6,42.7,30.23,SE,128,4.7,6.1,77,0.00,,,0.00,WUHU216HW,2013-02-09 15:33:00,
2013-02-09 09:43:00,50.5,42.9,30.23,ESE,107,2.0,4.0,75,0.00,,,0.00,WUHU216HW,2013-02-09 15:43:00,
2013-02-09 09:53:00,51.0,43.4,30.23,ESE,111,1.4,1.8,75,0.00,,,0.00,WUHU216HW,2013-02-09 15:53:00,
2013-02-09 10:03:00,51.6,43.6,30.23,SSE,158,1.6,1.6,74,0.00,,,0.00,WUHU216HW,2013-02-09 16:03:00,
2013-02-09 10:13:00,52.5,43.7,30.24,ESE,113,3.4,4.0,72,0.00,,,0.00,WUHU216HW,2013-02-09 16:13:00,
2013-02-09 10:23:00,53.2,44.3,30.23,SE,141,2.2,2.9,72,0.00,,,0.00,WUHU216HW,2013-02-09 16:23:00,
2013-02-09 10:33:00,53.7,44.8,30.23,SSW,212,2.0,2.9,71,0.00,,,0.00,WUHU216HW,2013-02-09 16:33:00,
2013-02-09 10:43:00,54.6,44.1,30.23,South,175,1.6,2.4,67,0.00,,,0.00,WUHU216HW,2013-02-09 16:43:00,
2013-02-09 10:54:00,55.2,44.3,30.23,SSE,154,2.9,4.6,66,0.00,,,0.00,WUHU216HW,2013-02-09 16:54:00,
2013-02-09 11:04:00,55.9,44.1,30.22,SE,131,3.0,4.2,64,0.00,,,0.00,WUHU216HW,2013-02-09 17:04:00,
2013-02-09 11:14:00,56.8,45.0,30.21,ESE,111,1.8,2.9,64,0.00,,,0.00,WUHU216HW,2013-02-09 17:14:00,
2013-02-09 11:24:00,57.3,45.0,30.21,South,174,3.2,4.0,63,0.00,,,0.00,WUHU216HW,2013-02-09 17:24:00,
2013-02-09 11:34:00,58.1,45.3,30.20,ESE,117,2.9,4.8,62,0.00,,,0.00,WUHU216HW,2013-02-09 17:34:00,
2013-02-09 11:44:00,58.8,45.5,30.19,SSE,155,3.6,5.9,61,0.00,,,0.00,WUHU216HW,2013-02-09 17:44:00,
2013-02-09 11:54:00,59.5,45.3,30.19,South,183,3.4,6.4,59,0.00,,,0.00,WUHU216HW,2013-02-09 17:54:00,
2013-02-09 12:04:00,60.0,44.8,30.19,SSE,157,2.9,3.7,57,0.00,,,0.00,WUHU216HW,2013-02-09 18:04:00,
2013-02-09 12:14:00,60.4,45.2,30.18,SE,129,2.7,5.3,57,0.00,,,0.00,WUHU216HW,2013-02-09 18:14:00,
2013-02-09 12:24:00,60.9,46.6,30.18,SSE,167,2.7,4.6,59,0.00,,,0.00,WUHU216HW,2013-02-09 18:24:00,
2013-02-09 12:36:00,61.5,45.8,30.17,ESE,111,3.0,7.0,56,0.00,,,0.00,WUHU216HW,2013-02-09 18:36:00,
2013-02-09 12:47:00,62.0,46.7,30.18,South,185,2.1,3.7,57,0.00,,,0.00,WUHU216HW,2013-02-09 18:47:00,
2013-02-09 12:57:00,62.4,46.1,30.17,SSE,149,1.7,2.9,55,0.00,,,0.00,WUHU216HW,2013-02-09 18:57:00,
2013-02-09 13:07:00,62.6,46.3,30.16,SE,146,2.2,2.9,55,0.00,,,0.00,WUHU216HW,2013-02-09 19:07:00,
2013-02-09 13:17:00,63.3,47.0,30.16,South,189,3.4,5.3,55,0.00,,,0.00,WUHU216HW,2013-02-09 19:17:00,
2013-02-09 13:27:00,64.0,47.7,30.15,South,171,2.6,4.6,55,0.00,,,0.00,WUHU216HW,2013-02-09 19:27:00,
2013-02-09 13:37:00,64.2,47.9,30.15,SSE,167,3.6,4.8,55,0.00,,,0.00,WUHU216HW,2013-02-09 19:37:00,
2013-02-09 13:48:00,64.2,47.4,30.15,South,181,4.0,7.0,54,0.00,,,0.00,WUHU216HW,2013-02-09 19:48:00,
2013-02-09 13:58:00,64.4,49.1,30.15,South,175,3.2,5.0,57,0.00,,,0.00,WUHU216HW,2013-02-09 19:58:00,
2013-02-09 14:08:00,64.4,49.1,30.15,SSE,159,3.5,5.3,57,0.00,,,0.00,WUHU216HW,2013-02-09 20:08:00,
2013-02-09 14:18:00,64.5,48.8,30.14,SSE,159,3.0,4.8,56,0.00,,,0.00,WUHU216HW,2013-02-09 20:18:00,
2013-02-09 14:28:00,64.5,48.3,30.15,SSE,160,5.0,7.0,56,0.00,,,0.00,WUHU216HW,2013-02-09 20:28:00,
2013-02-09 14:39:00,64.5,47.8,30.15,ESE,108,2.8,3.5,55,0.00,,,0.00,WUHU216HW,2013-02-09 20:39:00,
2013-02-09 14:49:00,64.5,47.9,30.14,SSE,150,2.2,3.5,55,0.00,,,0.00,WUHU216HW,2013-02-09 20:49:00,
2013-02-09 14:59:00,64.5,47.9,30.14,South,177,3.5,7.0,55,0.00,,,0.00,WUHU216HW,2013-02-09 20:59:00,
2013-02-09 15:10:00,64.0,48.0,30.14,SE,137,5.0,8.0,56,0.00,,,0.00,WUHU216HW,2013-02-09 21:10:00,
2013-02-09 15:20:00,63.3,48.8,30.14,South,174,2.8,4.6,59,0.00,,,0.00,WUHU216HW,2013-02-09 21:20:00,
2013-02-09 15:30:00,62.9,49.4,30.15,South,177,3.3,6.4,61,0.00,,,0.00,WUHU216HW,2013-02-09 21:30:00,
2013-02-09 15:41:00,62.4,49.4,30.14,South,172,2.2,4.8,62,0.00,,,0.00,WUHU216HW,2013-02-09 21:41:00,
2013-02-09 15:51:00,62.2,49.3,30.14,SSE,167,1.6,2.0,62,0.00,,,0.00,WUHU216HW,2013-02-09 21:51:00,
2013-02-09 16:01:00,61.7,49.3,30.14,SSE,147,2.5,3.1,63,0.00,,,0.00,WUHU216HW,2013-02-09 22:01:00,
2013-02-09 16:11:00,61.3,49.4,30.14,SSE,166,3.5,4.6,64,0.00,,,0.00,WUHU216HW,2013-02-09 22:11:00,
2013-02-09 16:21:00,60.8,49.3,30.14,South,179,2.0,2.9,66,0.00,,,0.00,WUHU216HW,2013-02-09 22:21:00,
2013-02-09 16:31:00,60.4,49.4,30.14,South,183,3.4,5.5,67,0.00,,,0.00,WUHU216HW,2013-02-09 22:31:00,
2013-02-09 16:41:00,59.7,49.6,30.13,SSW,201,2.5,5.0,69,0.00,,,0.00,WUHU216HW,2013-02-09 22:41:00,
2013-02-09 16:51:00,59.1,49.0,30.13,SSE,162,2.4,5.0,69,0.00,,,0.00,WUHU216HW,2013-02-09 22:51:00,
2013-02-09 17:02:00,58.8,49.1,30.12,South,180,1.4,1.8,70,0.00,,,0.00,WUHU216HW,2013-02-09 23:02:00,
2013-02-09 17:12:00,58.1,48.7,30.12,South,180,1.2,1.3,71,0.00,,,0.00,WUHU216HW,2013-02-09 23:12:00,
2013-02-09 17:22:00,57.3,48.3,30.12,SSE,166,0.8,1.0,72,0.00,,,0.00,WUHU216HW,2013-02-09 23:22:00,
2013-02-09 17:32:00,56.8,48.2,30.12,South,180,1.0,1.3,73,0.00,,,0.00,WUHU216HW,2013-02-09 23:32:00,
2013-02-09 17:42:00,55.9,47.3,30.12,North,0,0.0,0.0,73,0.00,,,0.00,WUHU216HW,2013-02-09 23:42:00,
2013-02-09 17:52:00,55.5,47.3,30.13,North,0,0.0,0.0,74,0.00,,,0.00,WUHU216HW,2013-02-09 23:52:00,
2013-02-09 18:02:00,55.0,47.2,30.13,North,0,0.0,0.0,75,0.00,,,0.00,WUHU216HW,2013-02-10 00:02:00,
2013-02-09 18:12:00,54.3,46.8,30.13,North,0,0.0,0.0,76,0.00,,,0.00,WUHU216HW,2013-02-10 00:12:00,
2013-02-09 18:22:00,53.9,46.5,30.13,North,0,0.0,0.0,76,0.00,,,0.00,WUHU216HW,2013-02-10 00:22:00,
2013-02-09 18:32:00,53.2,46.2,30.13,North,0,0.0,0.0,77,0.00,,,0.00,WUHU216HW,2013-02-10 00:32:00,
2013-02-09 18:42:00,52.7,46.0,30.13,North,0,0.0,0.0,78,0.00,,,0.00,WUHU216HW,2013-02-10 00:42:00,
2013-02-09 18:53:00,52.3,46.0,30.13,North,0,0.0,0.0,79,0.00,,,0.00,WUHU216HW,2013-02-10 00:53:00,
2013-02-09 19:03:00,51.8,45.8,30.13,North,0,0.0,0.0,80,0.00,,,0.00,WUHU216HW,2013-02-10 01:03:00,
2013-02-09 19:13:00,51.4,45.8,30.14,North,0,0.0,0.0,81,0.00,,,0.00,WUHU216HW,2013-02-10 01:13:00,
2013-02-09 19:23:00,51.2,45.6,30.13,North,0,0.0,0.0,81,0.00,,,0.00,WUHU216HW,2013-02-10 01:23:00,
2013-02-09 19:34:00,50.9,45.5,30.14,North,0,0.0,0.0,82,0.00,,,0.00,WUHU216HW,2013-02-10 01:34:00,
2013-02-09 19:44:00,50.7,45.3,30.14,North,0,0.0,0.0,82,0.00,,,0.00,WUHU216HW,2013-02-10 01:44:00,
2013-02-09 19:54:00,50.5,45.2,30.14,North,0,0.0,0.0,82,0.00,,,0.00,WUHU216HW,2013-02-10 01:54:00,
2013-02-09 20:04:00,50.1,44.8,30.14,North,0,0.0,0.0,82,0.00,,,0.00,WUHU216HW,2013-02-10 02:04:00,
2013-02-09 20:14:00,50.1,45.1,30.15,North,0,0.0,0.0,83,0.00,,,0.00,WUHU216HW,2013-02-10 02:14:00,
2013-02-09 20:24:00,49.8,45.1,30.15,North,0,0.0,0.0,84,0.00,,,0.00,WUHU216HW,2013-02-10 02:24:00,
2013-02-09 20:35:00,49.6,45.1,30.15,North,0,0.0,0.0,84,0.00,,,0.00,WUHU216HW,2013-02-10 02:35:00,
2013-02-09 20:45:00,49.6,45.2,30.15,North,0,0.0,0.0,85,0.00,,,0.00,WUHU216HW,2013-02-10 02:45:00,
2013-02-09 20:56:00,49.2,44.9,30.15,North,0,0.0,0.0,85,0.00,,,0.00,WUHU216HW,2013-02-10 02:56:00,
2013-02-09 21:06:00,49.1,44.7,30.16,North,0,0.0,0.0,85,0.00,,,0.00,WUHU216HW,2013-02-10 03:06:00,
2013-02-09 21:16:00,48.9,44.5,30.16,North,0,0.0,0.0,85,0.00,,,0.00,WUHU216HW,2013-02-10 03:16:00,
2013-02-09 21:26:00,48.7,44.7,30.16,North,0,0.0,0.0,86,0.00,,,0.00,WUHU216HW,2013-02-10 03:26:00,
2013-02-09 21:36:00,48.3,44.3,30.16,North,0,0.0,0.0,86,0.00,,,0.00,WUHU216HW,2013-02-10 03:36:00,
2013-02-09 21:46:00,48.2,44.2,30.15,North,0,0.0,0.0,86,0.00,,,0.00,WUHU216HW,2013-02-10 03:46:00,
2013-02-09 21:56:00,48.0,44.0,30.15,North,0,0.0,0.0,86,0.00,,,0.00,WUHU216HW,2013-02-10 03:56:00,
2013-02-09 22:06:00,47.8,43.8,30.15,North,0,0.0,0.0,86,0.00,,,0.00,WUHU216HW,2013-02-10 04:06:00,
2013-02-09 22:16:00,47.4,43.5,30.14,North,0,0.0,0.0,86,0.00,,,0.00,WUHU216HW,2013-02-10 04:16:00,
2013-02-09 22:27:00,47.4,43.5,30.15,North,0,0.0,0.0,86,0.00,,,0.00,WUHU216HW,2013-02-10 04:27:00,
2013-02-09 22:37:00,47.1,43.4,30.14,North,0,0.0,0.0,87,0.00,,,0.00,WUHU216HW,2013-02-10 04:37:00,
2013-02-09 22:47:00,47.1,43.4,30.14,North,0,0.0,0.0,87,0.00,,,0.00,WUHU216HW,2013-02-10 04:47:00,
2013-02-09 22:57:00,46.9,43.3,30.14,North,0,0.0,0.0,87,0.00,,,0.00,WUHU216HW,2013-02-10 04:57:00,
2013-02-09 23:07:00,46.7,43.1,30.14,North,0,0.0,0.0,87,0.00,,,0.00,WUHU216HW,2013-02-10 05:07:00,
2013-02-09 23:18:00,46.5,42.9,30.14,North,0,0.0,0.0,87,0.00,,,0.00,WUHU216HW,2013-02-10 05:18:00,
2013-02-09 23:28:00,46.5,43.2,30.13,North,0,0.0,0.0,88,0.00,,,0.00,WUHU216HW,2013-02-10 05:28:00,
2013-02-09 23:38:00,46.5,43.2,30.14,North,0,0.0,0.0,88,0.00,,,0.00,WUHU216HW,2013-02-10 05:38:00,
2013-02-09 23:48:00,46.4,43.0,30.14,North,0,0.0,0.0,88,0.00,,,0.00,WUHU216HW,2013-02-10 05:48:00,
2013-02-09 23:58:00,46.2,42.9,30.14,North,0,0.0,0.0,88,0.00,,,0.00,WUHU216HW,2013-02-10 05:58:00,